Time;durP1;ratioP1;P1;durP2;ratioP2;P2;SDS_P1;SDS_P2;PMS_P1;PMS_P2;Temp;Humidity;BMP_temperature;BMP_pressure;BME280_temperature;BME280_humidity;BME280_pressure;Samples;Min_cycle;Max_cycle;Signal;HPM_P1;HPM_P2
2022/06/07 00:01:26;;;;;;;1.27;0.60;;;14.20;99.90;;;;;;5104892;28;20297;-71
2022/06/07 00:03:53;;;;;;;0.60;0.60;;;14.10;99.90;;;;;;5110804;28;20751;-71
2022/06/07 00:06:20;;;;;;;1.13;0.93;;;14.10;99.90;;;;;;5105567;28;20636;-70
2022/06/07 00:08:47;;;;;;;0.90;0.70;;;14.00;99.90;;;;;;5110234;28;20224;-72
2022/06/07 00:11:14;;;;;;;2.77;0.87;;;13.90;99.90;;;;;;5105439;28;20224;-72
2022/06/07 00:13:41;;;;;;;1.40;0.60;;;13.80;99.90;;;;;;5109403;27;20476;-71
2022/06/07 00:16:08;;;;;;;2.30;0.77;;;13.90;99.90;;;;;;5108792;28;20197;-71
2022/06/07 00:18:37;;;;;;;1.37;0.67;;;13.90;99.90;;;;;;5110033;28;20197;-71
2022/06/07 00:21:04;;;;;;;1.10;1.00;;;13.90;99.90;;;;;;5105030;28;20266;-71
2022/06/07 00:23:34;;;;;;;1.03;0.80;;;13.90;99.90;;;;;;5110588;28;20204;-70
2022/06/07 00:26:02;;;;;;;0.80;0.80;;;13.80;99.90;;;;;;5107338;28;20208;-70
2022/06/07 00:28:30;;;;;;;1.30;1.20;;;13.70;99.90;;;;;;5112689;28;20200;-70
2022/06/07 00:30:57;;;;;;;1.47;1.10;;;13.70;99.90;;;;;;5104500;28;20282;-71
2022/06/07 00:33:26;;;;;;;0.80;0.80;;;13.80;99.90;;;;;;5111414;28;20393;-71
2022/06/07 00:35:54;;;;;;;1.40;1.00;;;13.80;99.90;;;;;;5106558;28;20258;-71
2022/06/07 00:38:22;;;;;;;3.90;1.10;;;13.90;99.90;;;;;;5107794;28;20602;-71
2022/06/07 00:40:49;;;;;;;0.70;0.70;;;13.80;99.90;;;;;;5115844;27;20204;-70
2022/06/07 00:43:16;;;;;;;0.80;0.80;;;13.80;99.90;;;;;;5107550;28;20201;-71
2022/06/07 00:45:43;;;;;;;0.87;0.80;;;13.80;99.90;;;;;;5107021;27;20250;-71
2022/06/07 00:48:10;;;;;;;1.10;0.80;;;13.70;99.90;;;;;;5107896;28;20197;-70
2022/06/07 00:50:44;;;;;;;1.20;1.10;;;13.70;99.90;;;;;;5103746;28;20240;-70
2022/06/07 00:53:26;;;;;;;1.17;1.00;;;13.70;99.90;;;;;;5111334;28;20256;-70
2022/06/07 00:55:54;;;;;;;0.60;0.60;;;13.80;99.90;;;;;;5107344;28;20201;-71
2022/06/07 00:58:22;;;;;;;2.30;1.07;;;13.60;99.90;;;;;;5110197;28;20205;-71
2022/06/07 01:00:50;;;;;;;4.00;0.90;;;13.50;99.90;;;;;;5108797;28;20201;-70
2022/06/07 01:03:18;;;;;;;1.00;0.57;;;13.20;99.90;;;;;;5107661;28;20225;-70
2022/06/07 01:05:45;;;;;;;1.30;1.20;;;13.40;99.90;;;;;;5104264;27;20207;-70
2022/06/07 01:10:57;;;;;;;1.73;0.83;;;13.00;99.90;;;;;;5109408;28;20321;-70
2022/06/07 01:13:28;;;;;;;1.20;1.10;;;13.00;99.90;;;;;;5106139;28;20215;-71
2022/06/07 01:15:59;;;;;;;1.07;1.07;;;13.10;99.90;;;;;;5101057;28;20747;-70
2022/06/07 01:18:26;;;;;;;1.10;0.97;;;13.10;99.90;;;;;;5106341;28;20209;-70
2022/06/07 01:21:18;;;;;;;1.13;1.10;;;13.00;99.90;;;;;;5112164;27;20200;-71
2022/06/07 01:23:46;;;;;;;2.43;1.10;;;12.60;99.90;;;;;;5106870;28;20566;-71
2022/06/07 01:26:13;;;;;;;3.10;1.40;;;12.70;99.90;;;;;;5107883;28;20287;-70
2022/06/07 01:28:40;;;;;;;1.00;1.00;;;12.50;99.90;;;;;;5108087;28;20769;-70
2022/06/07 01:31:07;;;;;;;2.57;1.20;;;12.40;99.90;;;;;;5107891;28;20881;-71
2022/06/07 01:33:35;;;;;;;1.27;1.17;;;12.50;99.90;;;;;;5108070;28;20542;-70
2022/06/07 01:36:03;;;;;;;1.00;1.00;;;12.40;99.90;;;;;;5106104;28;20200;-71
2022/06/07 01:38:33;;;;;;;1.40;1.30;;;12.50;99.90;;;;;;5107674;28;20197;-71
2022/06/07 01:43:44;;;;;;;1.63;1.30;;;12.60;99.90;;;;;;5109004;28;20277;-70
2022/06/07 01:46:11;;;;;;;2.10;1.20;;;12.60;99.90;;;;;;5106530;28;20205;-70
2022/06/07 01:48:39;;;;;;;1.53;1.20;;;12.60;99.90;;;;;;5109380;28;20250;-70
2022/06/07 01:51:08;;;;;;;1.50;1.20;;;12.60;99.90;;;;;;5103923;28;20622;-71
2022/06/07 01:53:37;;;;;;;1.20;1.20;;;12.50;99.90;;;;;;5108839;28;20193;-71
2022/06/07 01:56:06;;;;;;;1.20;1.10;;;12.50;99.90;;;;;;5103223;28;20284;-71
2022/06/07 01:58:34;;;;;;;2.33;1.30;;;12.60;99.90;;;;;;5110112;28;20201;-71
2022/06/07 02:01:01;;;;;;;1.73;1.30;;;12.60;99.90;;;;;;5107311;28;20205;-70
2022/06/07 02:03:28;;;;;;;3.03;1.53;;;12.50;99.90;;;;;;5104182;28;20236;-70
2022/06/07 02:05:56;;;;;;;1.50;1.37;;;12.60;99.90;;;;;;5101720;28;20527;-70
2022/06/07 02:08:24;;;;;;;1.60;1.50;;;12.40;99.90;;;;;;5097566;28;20383;-70
2022/06/07 02:10:52;;;;;;;1.63;1.40;;;12.30;99.90;;;;;;5096155;28;20273;-70
2022/06/07 02:13:19;;;;;;;1.23;1.20;;;12.40;99.90;;;;;;5106096;28;20284;-71
2022/06/07 02:15:47;;;;;;;1.50;1.40;;;12.50;99.90;;;;;;5105800;28;20530;-71
2022/06/07 02:18:15;;;;;;;4.23;1.70;;;12.40;99.90;;;;;;5109573;28;20193;-70
2022/06/07 02:20:43;;;;;;;4.43;2.27;;;12.60;99.90;;;;;;5104502;28;20204;-71
2022/06/07 02:23:10;;;;;;;5.17;2.00;;;12.70;99.90;;;;;;5111077;28;20197;-71
2022/06/07 02:25:42;;;;;;;1.57;1.47;;;12.80;99.90;;;;;;5104366;28;20297;-71
2022/06/07 02:28:11;;;;;;;1.70;1.60;;;12.80;99.90;;;;;;5102867;28;20665;-71
2022/06/07 02:30:39;;;;;;;2.40;2.00;;;12.80;99.90;;;;;;5110462;28;20269;-70
2022/06/07 02:33:06;;;;;;;2.73;1.93;;;12.80;99.90;;;;;;5104870;28;20205;-70
2022/06/07 02:35:33;;;;;;;2.53;1.87;;;13.00;99.90;;;;;;5106841;27;20238;-70
2022/06/07 02:38:01;;;;;;;2.27;1.73;;;12.90;99.90;;;;;;5109866;28;20278;-71
2022/06/07 02:40:28;;;;;;;5.13;1.80;;;13.00;99.90;;;;;;5111365;28;20634;-70
2022/06/07 02:42:55;;;;;;;2.47;1.73;;;12.90;99.90;;;;;;5106667;28;20236;-71
2022/06/07 02:45:24;;;;;;;3.90;2.00;;;12.90;99.90;;;;;;5111631;28;20201;-71
2022/06/07 02:47:51;;;;;;;2.63;2.10;;;12.90;99.90;;;;;;5106952;28;20230;-71
2022/06/07 02:50:18;;;;;;;3.00;2.10;;;13.00;99.90;;;;;;5105120;28;20205;-71
2022/06/07 02:52:45;;;;;;;2.17;2.07;;;13.00;99.90;;;;;;5114158;28;20201;-71
2022/06/07 02:55:12;;;;;;;2.70;2.17;;;12.90;99.90;;;;;;5105268;28;20205;-71
2022/06/07 02:57:39;;;;;;;2.50;2.07;;;12.90;99.90;;;;;;5112669;28;20288;-71
2022/06/07 03:00:08;;;;;;;2.33;2.13;;;12.70;99.90;;;;;;5108751;28;20235;-71
2022/06/07 03:02:37;;;;;;;4.20;2.23;;;12.80;99.90;;;;;;5111902;28;20193;-70
2022/06/07 03:05:05;;;;;;;2.20;2.00;;;12.70;99.90;;;;;;5109778;28;20205;-71
2022/06/07 03:07:32;;;;;;;2.63;2.20;;;12.70;99.90;;;;;;5109003;28;20197;-71
2022/06/07 03:09:59;;;;;;;4.47;2.30;;;12.50;99.90;;;;;;5111572;28;20246;-70
2022/06/07 03:12:26;;;;;;;4.53;2.67;;;12.40;99.90;;;;;;5107052;28;20290;-70
2022/06/07 03:14:53;;;;;;;2.60;2.40;;;12.50;99.90;;;;;;5112315;28;20213;-70
2022/06/07 03:17:20;;;;;;;2.30;2.10;;;12.60;99.90;;;;;;5105970;27;20672;-70
2022/06/07 03:19:58;;;;;;;3.70;2.67;;;12.60;99.90;;;;;;5109358;28;20259;-70
2022/06/07 03:22:31;;;;;;;4.17;3.00;;;12.60;99.90;;;;;;5115104;28;20257;-70
2022/06/07 03:25:04;;;;;;;3.57;3.20;;;12.90;99.90;;;;;;5109369;28;20295;-71
2022/06/07 03:27:32;;;;;;;4.23;3.50;;;13.00;99.90;;;;;;5112798;28;20205;-71
2022/06/07 03:29:59;;;;;;;4.63;3.43;;;13.30;99.90;;;;;;5109049;28;20258;-71
2022/06/07 03:32:26;;;;;;;22.07;14.07;;;13.60;99.90;;;;;;5112175;28;20243;-71
2022/06/07 03:34:55;;;;;;;5.03;4.03;;;13.60;99.90;;;;;;5107439;28;20620;-71
2022/06/07 03:37:22;;;;;;;4.73;3.90;;;13.70;99.90;;;;;;5108219;28;20704;-71
2022/06/07 03:39:50;;;;;;;4.77;3.90;;;13.80;99.90;;;;;;5109588;28;20204;-71
2022/06/07 03:42:17;;;;;;;5.47;4.00;;;13.80;99.90;;;;;;5107733;28;20207;-71
2022/06/07 03:44:48;;;;;;;5.57;4.00;;;13.80;99.90;;;;;;5112265;28;20257;-71
2022/06/07 03:47:15;;;;;;;4.03;3.30;;;13.80;99.90;;;;;;5109303;28;20243;-71
2022/06/07 03:49:42;;;;;;;4.33;3.23;;;13.90;99.90;;;;;;5108655;28;20197;-71
2022/06/07 03:52:11;;;;;;;5.03;3.27;;;14.00;99.90;;;;;;5113360;28;20229;-71
2022/06/07 03:54:38;;;;;;;3.77;2.90;;;13.90;99.90;;;;;;5110660;28;20197;-71
2022/06/07 03:57:06;;;;;;;2.83;2.60;;;13.90;99.90;;;;;;5102476;28;20206;-71
2022/06/07 03:59:33;;;;;;;3.27;2.97;;;13.90;99.90;;;;;;5099153;28;20200;-71
2022/06/07 04:02:00;;;;;;;3.10;2.80;;;13.70;99.90;;;;;;5103244;28;20241;-71
2022/06/07 04:04:27;;;;;;;3.23;2.63;;;13.60;99.90;;;;;;5100519;28;20214;-71
2022/06/07 04:09:45;;;;;;;6.43;3.73;;;12.60;99.90;;;;;;5023311;28;20207;-71
2022/06/07 04:12:15;;;;;;;4.20;3.00;;;12.60;99.90;;;;;;5113296;28;20243;-71
2022/06/07 04:14:43;;;;;;;4.07;2.80;;;12.50;99.90;;;;;;5108259;28;20270;-71
2022/06/07 04:17:11;;;;;;;5.63;3.47;;;13.00;99.90;;;;;;5111683;27;20197;-71
2022/06/07 04:19:40;;;;;;;3.67;3.37;;;12.80;99.90;;;;;;5106903;28;20197;-71
2022/06/07 04:22:07;;;;;;;5.60;3.17;;;13.40;99.90;;;;;;5113358;28;20201;-71
2022/06/07 04:24:34;;;;;;;2.93;2.63;;;13.90;99.90;;;;;;5108561;28;20225;-71
2022/06/07 04:27:03;;;;;;;3.33;2.60;;;14.40;99.90;;;;;;5110477;28;20337;-71
2022/06/07 04:29:30;;;;;;;4.57;2.30;;;14.50;99.90;;;;;;5108467;28;20651;-72
2022/06/07 04:31:57;;;;;;;3.97;2.20;;;14.50;99.90;;;;;;5111332;28;20316;-72
2022/06/07 04:34:24;;;;;;;3.60;2.10;;;14.90;99.90;;;;;;5110501;28;20240;-72
2022/06/07 04:36:51;;;;;;;3.83;2.40;;;15.20;99.90;;;;;;5110678;28;20712;-72
2022/06/07 04:39:18;;;;;;;3.20;2.53;;;15.20;99.90;;;;;;5106556;28;20639;-72
2022/06/07 04:41:45;;;;;;;3.63;2.30;;;15.30;99.90;;;;;;5109080;28;20255;-72
2022/06/07 04:44:13;;;;;;;3.13;2.27;;;15.20;99.90;;;;;;5112303;28;20629;-72
2022/06/07 04:46:41;;;;;;;4.67;2.50;;;15.20;99.90;;;;;;5107938;27;20716;-72
2022/06/07 04:49:08;;;;;;;2.27;2.10;;;15.10;99.90;;;;;;5109199;28;20292;-72
2022/06/07 04:51:38;;;;;;;3.23;2.33;;;15.10;99.90;;;;;;5108141;28;20273;-72
2022/06/07 04:54:06;;;;;;;2.33;2.20;;;15.20;99.90;;;;;;5107692;28;20643;-72
2022/06/07 04:56:35;;;;;;;5.93;2.70;;;15.20;99.90;;;;;;5108814;28;20751;-72
2022/06/07 04:59:05;;;;;;;5.27;2.50;;;15.10;99.90;;;;;;5108392;28;20455;-73
2022/06/07 05:01:36;;;;;;;4.40;2.20;;;15.10;99.90;;;;;;5108223;28;20625;-72
2022/06/07 05:04:04;;;;;;;4.33;2.60;;;15.20;99.90;;;;;;5110524;28;20542;-72
2022/06/07 05:06:33;;;;;;;5.87;2.27;;;15.50;99.90;;;;;;5102129;28;20247;-72
2022/06/07 05:09:03;;;;;;;4.13;2.60;;;15.90;99.90;;;;;;5107833;28;20307;-72
2022/06/07 05:11:31;;;;;;;2.80;2.40;;;15.90;99.90;;;;;;5105684;28;20251;-72
2022/06/07 05:13:59;;;;;;;4.53;2.30;;;15.90;99.90;;;;;;5092098;28;20288;-73
2022/06/07 05:16:27;;;;;;;5.20;2.20;;;16.10;99.90;;;;;;5099799;28;20201;-72
2022/06/07 05:18:56;;;;;;;3.20;2.10;;;16.20;99.90;;;;;;5110879;28;20280;-72
2022/06/07 05:21:25;;;;;;;4.60;2.30;;;16.00;99.90;;;;;;5107868;28;20212;-72
2022/06/07 05:23:53;;;;;;;4.30;1.90;;;16.00;99.90;;;;;;5111794;28;20246;-72
2022/06/07 05:26:27;;;;;;;2.27;1.97;;;16.00;99.90;;;;;;5102145;28;20715;-72
2022/06/07 05:28:54;;;;;;;2.40;2.20;;;16.70;99.90;;;;;;5107932;28;20197;-72
2022/06/07 05:31:21;;;;;;;5.20;2.23;;;17.70;99.90;;;;;;5102010;28;20228;-72
2022/06/07 05:33:48;;;;;;;2.60;2.37;;;17.60;99.90;;;;;;5111897;28;20201;-73
2022/06/07 05:36:16;;;;;;;3.50;1.80;;;16.90;99.90;;;;;;5108165;28;20617;-72
2022/06/07 05:38:43;;;;;;;3.53;2.20;;;16.70;99.90;;;;;;5110206;28;20209;-72
2022/06/07 05:41:14;;;;;;;3.05;2.28;;;17.00;99.90;;;;;;5098483;28;20258;-73
2022/06/07 05:43:42;;;;;;;5.20;2.53;;;17.50;99.90;;;;;;5103479;28;20706;-72
2022/06/07 05:46:09;;;;;;;2.85;2.10;;;18.60;99.90;;;;;;5106581;27;20708;-72
2022/06/07 05:48:36;;;;;;;2.60;2.20;;;18.70;99.90;;;;;;5108875;28;20208;-72
2022/06/07 05:51:04;;;;;;;4.30;2.30;;;18.20;99.90;;;;;;5104514;28;20205;-72
2022/06/07 05:53:32;;;;;;;4.72;2.10;;;18.20;99.90;;;;;;5109954;28;20197;-72
2022/06/07 05:56:06;;;;;;;2.88;2.00;;;18.40;99.90;;;;;;5106586;28;20692;-73
2022/06/07 05:58:33;;;;;;;5.45;2.22;;;17.80;99.90;;;;;;5104957;28;20194;-72
2022/06/07 06:01:00;;;;;;;2.08;1.90;;;17.30;99.90;;;;;;5104406;28;20201;-72
2022/06/07 06:03:27;;;;;;;4.15;2.42;;;17.10;99.90;;;;;;5109010;28;20240;-72
2022/06/07 06:05:54;;;;;;;5.25;2.00;;;17.10;99.90;;;;;;5096031;28;20295;-72
2022/06/07 06:11:11;;;;;;;4.63;2.08;;;17.10;99.90;;;;;;5096939;28;20564;-72
2022/06/07 06:13:38;;;;;;;3.15;2.40;;;17.00;99.90;;;;;;5107708;28;20201;-72
2022/06/07 06:16:09;;;;;;;3.47;2.25;;;17.30;99.90;;;;;;5105585;28;20288;-72
2022/06/07 06:18:36;;;;;;;2.67;2.35;;;17.40;99.90;;;;;;5104773;28;20213;-72
2022/06/07 06:21:03;;;;;;;3.38;2.25;;;17.20;99.90;;;;;;5107205;28;20283;-72
2022/06/07 06:23:30;;;;;;;3.80;2.10;;;17.20;99.90;;;;;;5107389;28;20257;-72
2022/06/07 06:25:57;;;;;;;3.65;2.30;;;17.10;99.90;;;;;;5108021;28;20250;-72
2022/06/07 06:28:26;;;;;;;4.75;2.60;;;17.20;99.90;;;;;;5102768;28;20293;-72
2022/06/07 06:30:54;;;;;;;6.03;2.28;;;17.00;99.90;;;;;;5103792;28;20212;-72
2022/06/07 06:33:22;;;;;;;3.15;2.20;;;17.20;99.90;;;;;;5109467;28;20225;-72
2022/06/07 06:35:51;;;;;;;3.45;2.35;;;17.30;99.90;;;;;;5108199;28;20288;-72
2022/06/07 06:38:18;;;;;;;4.13;2.70;;;17.40;99.90;;;;;;5105728;28;20197;-72
2022/06/07 06:40:46;;;;;;;4.75;2.30;;;17.20;99.90;;;;;;5098434;28;20687;-72
2022/06/07 06:43:14;;;;;;;2.13;1.88;;;17.20;99.90;;;;;;5109222;28;20250;-72
2022/06/07 06:45:43;;;;;;;3.97;2.42;;;17.20;99.90;;;;;;5108724;28;20205;-72
2022/06/07 06:48:12;;;;;;;3.22;2.17;;;17.30;99.90;;;;;;5095820;28;20201;-72
2022/06/07 06:50:40;;;;;;;6.72;2.03;;;17.40;99.90;;;;;;5104789;28;20314;-72
2022/06/07 06:53:08;;;;;;;2.55;1.80;;;17.40;99.90;;;;;;5106335;28;20227;-72
2022/06/07 06:55:35;;;;;;;2.05;1.80;;;17.40;99.90;;;;;;5099236;28;20197;-72
2022/06/07 06:58:02;;;;;;;3.92;1.90;;;17.40;99.30;;;;;;5102609;28;20223;-72
2022/06/07 07:00:29;;;;;;;3.90;2.13;;;17.60;99.40;;;;;;5107215;28;20204;-71
2022/06/07 07:02:58;;;;;;;3.72;1.85;;;17.70;97.00;;;;;;5101324;28;20477;-72
2022/06/07 07:05:26;;;;;;;2.72;1.73;;;17.70;97.30;;;;;;5101167;28;20201;-72
2022/06/07 07:07:54;;;;;;;2.72;1.83;;;17.70;95.40;;;;;;5100178;28;20296;-72
2022/06/07 07:10:21;;;;;;;2.00;1.60;;;17.70;92.70;;;;;;5104569;28;20208;-72
2022/06/07 07:12:48;;;;;;;2.83;1.83;;;17.60;92.10;;;;;;5107200;28;20217;-72
2022/06/07 07:15:15;;;;;;;4.40;1.83;;;17.60;92.00;;;;;;5105958;28;20636;-72
2022/06/07 07:17:42;;;;;;;4.35;1.90;;;17.60;91.90;;;;;;5112215;28;20598;-72
2022/06/07 07:20:12;;;;;;;4.57;1.85;;;17.60;91.70;;;;;;5095497;27;20201;-72
2022/06/07 07:22:39;;;;;;;3.63;2.42;;;17.70;91.00;;;;;;5102301;28;20201;-72
2022/06/07 07:25:09;;;;;;;3.25;2.22;;;17.70;92.10;;;;;;5105816;28;20676;-72
2022/06/07 07:27:36;;;;;;;4.45;2.08;;;17.80;93.70;;;;;;5101678;27;20198;-72
2022/06/07 07:30:03;;;;;;;4.60;2.15;;;17.80;92.10;;;;;;5100512;28;20201;-72
2022/06/07 07:32:30;;;;;;;5.50;2.08;;;17.60;91.50;;;;;;5111490;27;20222;-72
2022/06/07 07:34:57;;;;;;;4.00;1.90;;;17.60;92.10;;;;;;5110904;27;20201;-72
2022/06/07 07:37:26;;;;;;;1.67;1.58;;;17.60;91.50;;;;;;5105135;28;20205;-72
2022/06/07 07:39:54;;;;;;;3.47;1.77;;;17.70;91.30;;;;;;5103162;28;20295;-72
2022/06/07 07:42:21;;;;;;;2.60;1.73;;;17.90;92.20;;;;;;5102175;27;20236;-72
2022/06/07 07:44:48;;;;;;;6.55;2.38;;;17.90;91.80;;;;;;5100299;28;20201;-72
2022/06/07 07:47:15;;;;;;;5.70;1.80;;;18.00;91.10;;;;;;5101420;28;20247;-68
2022/06/07 07:49:42;;;;;;;2.55;1.70;;;18.10;87.10;;;;;;5104328;28;20289;-68
2022/06/07 07:52:10;;;;;;;2.92;1.65;;;18.20;89.90;;;;;;5100008;28;20221;-72
2022/06/07 07:54:39;;;;;;;1.73;1.58;;;18.20;88.80;;;;;;5102062;28;20209;-72
2022/06/07 07:57:06;;;;;;;4.35;1.80;;;18.20;86.80;;;;;;5099488;28;20216;-72
2022/06/07 07:59:33;;;;;;;4.80;1.73;;;18.30;85.80;;;;;;5100711;28;20255;-72
2022/06/07 08:02:00;;;;;;;1.83;1.70;;;18.30;83.50;;;;;;5104698;28;20213;-72
2022/06/07 08:04:27;;;;;;;2.00;1.90;;;18.30;77.40;;;;;;5108087;27;20280;-72
2022/06/07 08:06:54;;;;;;;3.58;1.73;;;18.30;79.30;;;;;;5103295;28;20204;-72
2022/06/07 08:09:22;;;;;;;2.75;1.50;;;18.40;77.50;;;;;;5107224;28;20280;-72
2022/06/07 08:11:50;;;;;;;5.38;2.10;;;18.50;78.80;;;;;;5100931;28;20304;-71
2022/06/07 08:14:19;;;;;;;2.25;1.80;;;18.60;80.80;;;;;;5104741;28;20209;-72
2022/06/07 08:16:49;;;;;;;2.53;1.55;;;18.80;79.50;;;;;;5098872;28;20575;-72
2022/06/07 08:19:18;;;;;;;4.20;1.60;;;18.70;75.00;;;;;;5104646;28;20217;-72
2022/06/07 08:21:45;;;;;;;5.20;1.80;;;18.80;73.00;;;;;;5101043;28;20202;-71
2022/06/07 08:24:12;;;;;;;3.50;1.88;;;18.90;76.30;;;;;;5106222;28;20210;-71
2022/06/07 08:26:40;;;;;;;2.88;1.40;;;19.20;74.80;;;;;;5100287;27;20237;-71
2022/06/07 08:29:09;;;;;;;2.03;1.58;;;19.30;72.20;;;;;;5104787;27;20851;-71
2022/06/07 08:31:36;;;;;;;1.83;1.50;;;19.30;70.80;;;;;;5101365;28;20204;-71
2022/06/07 08:39:33;;;;;;;5.88;1.70;;;19.50;61.00;;;;;;5106350;28;20719;-71
2022/06/07 08:42:03;;;;;;;1.50;1.00;;;19.70;53.00;;;;;;5100911;28;20201;-71
2022/06/07 08:44:39;;;;;;;1.38;1.00;;;19.90;52.00;;;;;;5099458;28;20251;-72
2022/06/07 08:47:13;;;;;;;1.50;1.40;;;20.30;46.10;;;;;;5104536;28;20201;-71
2022/06/07 08:49:40;;;;;;;1.30;0.98;;;20.60;47.00;;;;;;5096122;28;20535;-72
2022/06/07 08:52:13;;;;;;;1.98;1.30;;;20.70;44.10;;;;;;5103903;28;20198;-71
2022/06/07 08:54:41;;;;;;;1.50;1.02;;;20.90;43.70;;;;;;5106625;27;20425;-71
2022/06/07 08:57:18;;;;;;;1.77;1.40;;;21.20;43.30;;;;;;5098077;28;20233;-72
2022/06/07 08:59:48;;;;;;;2.20;1.58;;;21.40;41.70;;;;;;5105942;28;20269;-72
2022/06/07 09:02:42;;;;;;;3.10;1.30;;;21.60;40.50;;;;;;5101279;27;20246;-72
2022/06/07 09:05:13;;;;;;;1.30;1.15;;;21.40;42.10;;;;;;5100731;28;20229;-72
2022/06/07 09:07:40;;;;;;;2.28;1.02;;;21.10;41.50;;;;;;5100967;28;20200;-72
2022/06/07 09:13:05;;;;;;;1.98;1.15;;;21.80;38.20;;;;;;5106198;28;20223;-71
2022/06/07 09:15:36;;;;;;;1.33;1.00;;;21.70;40.20;;;;;;5109246;28;20579;-71
2022/06/07 09:18:06;;;;;;;2.08;0.93;;;21.90;40.10;;;;;;5117354;27;20659;-72
2022/06/07 09:20:37;;;;;;;1.55;1.15;;;22.50;38.90;;;;;;5108208;28;20201;-72
2022/06/07 09:23:12;;;;;;;2.22;1.25;;;22.50;37.30;;;;;;5112397;28;20258;-71
2022/06/07 09:25:42;;;;;;;1.58;1.00;;;22.30;36.60;;;;;;5106775;28;20212;-71
2022/06/07 09:28:16;;;;;;;2.95;1.25;;;22.50;37.00;;;;;;5111185;28;20204;-71
2022/06/07 09:30:46;;;;;;;1.23;1.00;;;22.70;34.80;;;;;;5110184;28;20236;-72
2022/06/07 09:33:23;;;;;;;1.90;1.35;;;22.80;35.30;;;;;;5093402;28;20270;-72
2022/06/07 09:35:53;;;;;;;1.95;1.30;;;23.70;34.10;;;;;;5102647;28;20201;-71
2022/06/07 09:38:31;;;;;;;3.17;1.67;;;24.10;31.90;;;;;;5111564;28;20280;-72
2022/06/07 09:41:36;;;;;;;1.70;1.17;;;23.80;30.10;;;;;;5110251;28;20193;-72
2022/06/07 09:43:55;;;;;;;2.67;1.13;;;23.40;30.40;;;;;;5089577;28;20193;-71
2022/06/07 09:46:26;;;;;;;1.30;1.17;;;23.30;28.50;;;;;;5099764;28;20258;-71
2022/06/07 09:48:53;;;;;;;2.38;1.17;;;23.90;29.00;;;;;;5110315;28;20209;-71
2022/06/07 09:51:23;;;;;;;2.25;1.00;;;23.30;25.80;;;;;;5111137;28;20204;-72
2022/06/07 09:54:00;;;;;;;1.38;1.00;;;23.50;28.00;;;;;;5110437;28;20256;-72
2022/06/07 09:56:35;;;;;;;3.35;1.27;;;23.80;27.00;;;;;;5096346;28;20215;-72
2022/06/07 09:59:27;;;;;;;2.78;1.17;;;24.30;25.70;;;;;;5090066;28;20894;-71
2022/06/07 10:02:00;;;;;;;1.48;1.00;;;24.50;26.30;;;;;;5103545;28;20711;-72
2022/06/07 10:04:34;;;;;;;3.00;1.20;;;24.40;23.40;;;;;;5103782;28;20216;-72
2022/06/07 10:07:07;;;;;;;3.17;1.30;;;23.50;24.00;;;;;;5099785;28;20217;-71
2022/06/07 10:09:57;;;;;;;3.28;0.95;;;22.90;27.00;;;;;;5103506;28;20259;-71
2022/06/07 10:12:31;;;;;;;1.38;1.15;;;23.60;25.70;;;;;;5095692;28;20255;-71
2022/06/07 10:15:20;;;;;;;2.08;1.23;;;23.70;25.70;;;;;;5098783;28;20209;-71
2022/06/07 10:18:17;;;;;;;2.70;1.30;;;24.00;26.50;;;;;;5104724;28;20241;-72
2022/06/07 10:21:05;;;;;;;2.03;1.25;;;23.70;25.20;;;;;;5096253;27;20566;-72
2022/06/07 10:23:48;;;;;;;1.98;1.45;;;23.80;24.60;;;;;;5097042;28;20270;-71
2022/06/07 10:26:26;;;;;;;0.88;0.80;;;23.30;23.50;;;;;;5098195;28;20257;-71
2022/06/07 10:29:06;;;;;;;2.50;1.15;;;23.20;23.00;;;;;;5109978;28;20638;-72
2022/06/07 10:31:43;;;;;;;1.90;1.08;;;24.10;21.90;;;;;;5109087;28;20204;-72
2022/06/07 10:34:17;;;;;;;2.60;0.80;;;23.60;21.40;;;;;;5108620;28;20311;-71
2022/06/07 10:36:52;;;;;;;1.63;0.70;;;23.70;21.90;;;;;;5109374;28;20199;-71
2022/06/07 10:39:38;;;;;;;1.70;1.05;;;23.90;23.40;;;;;;5109346;28;20200;-71
2022/06/07 10:42:15;;;;;;;2.30;0.90;;;24.10;21.20;;;;;;5102570;28;20248;-71
2022/06/07 10:44:47;;;;;;;1.15;1.05;;;23.50;22.10;;;;;;5109321;28;20208;-71
2022/06/07 10:47:21;;;;;;;3.50;1.23;;;24.40;21.40;;;;;;5100400;28;20787;-71
2022/06/07 10:49:54;;;;;;;1.00;0.90;;;24.70;20.40;;;;;;5090544;28;20322;-71
2022/06/07 10:52:32;;;;;;;1.45;1.10;;;24.70;20.10;;;;;;5094245;28;20552;-72
2022/06/07 10:55:15;;;;;;;2.20;1.38;;;24.60;21.30;;;;;;5103915;28;20204;-72
2022/06/07 10:57:55;;;;;;;2.20;1.20;;;24.70;21.70;;;;;;5114994;28;20432;-72
2022/06/07 11:00:31;;;;;;;4.03;1.25;;;25.00;21.90;;;;;;5103800;28;20640;-72
2022/06/07 11:03:06;;;;;;;1.23;1.13;;;25.20;21.40;;;;;;5107343;28;20250;-72
2022/06/07 11:11:14;;;;;;;1.73;1.35;;;24.40;21.10;;;;;;5095632;28;20232;-69
2022/06/07 11:13:59;;;;;;;3.55;1.30;;;25.00;21.80;;;;;;5111515;28;20263;-69
2022/06/07 11:16:35;;;;;;;4.57;1.25;;;25.30;21.70;;;;;;5108615;28;20632;-69
2022/06/07 11:19:03;;;;;;;1.60;1.50;;;25.80;21.80;;;;;;5106245;28;20193;-69
2022/06/07 11:21:34;;;;;;;1.17;1.08;;;25.00;19.30;;;;;;5107716;28;20202;-69
2022/06/07 11:24:21;;;;;;;2.17;1.42;;;24.60;19.50;;;;;;5114331;28;20201;-69
2022/06/07 11:27:18;;;;;;;2.13;1.15;;;24.40;18.80;;;;;;5109962;28;20500;-69
2022/06/07 11:29:45;;;;;;;1.38;1.27;;;25.40;20.90;;;;;;5092957;28;20224;-69
2022/06/07 11:32:42;;;;;;;2.47;1.15;;;25.00;20.50;;;;;;5093007;27;20245;-69
2022/06/07 11:35:48;;;;;;;1.38;1.23;;;24.90;18.90;;;;;;5106763;28;20204;-69
2022/06/07 11:38:32;;;;;;;1.90;1.15;;;25.30;17.30;;;;;;5106492;28;20192;-69
2022/06/07 11:44:00;;;;;;;1.85;1.15;;;24.50;19.90;;;;;;5106984;27;20670;-69
2022/06/07 11:46:39;;;;;;;2.90;1.40;;;24.50;19.10;;;;;;5118916;27;20710;-69
2022/06/07 11:49:38;;;;;;;2.42;1.35;;;24.00;21.60;;;;;;5116399;27;20197;-69
2022/06/07 11:52:22;;;;;;;1.52;1.08;;;25.20;21.80;;;;;;5083893;28;20217;-69
2022/06/07 11:54:55;;;;;;;2.20;1.10;;;25.10;20.40;;;;;;5109541;28;20311;-69
2022/06/07 11:57:29;;;;;;;1.70;1.30;;;25.30;19.70;;;;;;5108031;28;20197;-69
2022/06/07 11:59:58;;;;;;;1.48;1.00;;;25.40;18.10;;;;;;5096848;28;20236;-69
2022/06/07 12:02:32;;;;;;;1.38;1.10;;;25.50;19.20;;;;;;5101491;28;20656;-69
2022/06/07 12:05:19;;;;;;;2.17;1.20;;;25.60;17.70;;;;;;5109666;27;20197;-69
2022/06/07 12:07:51;;;;;;;0.98;0.98;;;25.40;18.00;;;;;;5107443;27;20254;-69
2022/06/07 12:10:29;;;;;;;2.58;1.20;;;26.00;14.80;;;;;;5103105;28;20291;-68
2022/06/07 12:12:58;;;;;;;1.30;1.17;;;25.30;14.90;;;;;;5101245;28;20208;-69
2022/06/07 12:15:29;;;;;;;0.90;0.88;;;24.70;17.60;;;;;;5104605;28;20619;-69
2022/06/07 12:17:58;;;;;;;1.50;0.93;;;25.00;19.30;;;;;;5098875;28;20234;-68
2022/06/07 12:20:30;;;;;;;1.33;1.02;;;25.00;17.50;;;;;;5107451;28;20246;-69
2022/06/07 12:22:58;;;;;;;2.55;1.20;;;24.80;18.00;;;;;;5099582;28;20776;-69
2022/06/07 12:25:30;;;;;;;2.85;1.20;;;24.60;17.40;;;;;;5108113;28;20204;-69
2022/06/07 12:27:57;;;;;;;1.80;1.13;;;24.90;18.80;;;;;;5096935;28;20197;-69
2022/06/07 12:30:27;;;;;;;1.02;1.02;;;24.40;17.80;;;;;;5101055;28;20202;-69
2022/06/07 12:32:55;;;;;;;1.67;1.10;;;24.30;20.00;;;;;;5096999;28;20254;-69
2022/06/07 12:35:26;;;;;;;1.30;1.10;;;24.20;17.60;;;;;;5100461;28;20274;-68
2022/06/07 12:37:57;;;;;;;1.10;1.00;;;23.80;18.50;;;;;;5106822;28;20203;-68
2022/06/07 12:40:30;;;;;;;3.80;1.15;;;24.60;20.80;;;;;;5108965;28;20602;-68
2022/06/07 12:42:57;;;;;;;1.98;1.23;;;25.20;20.50;;;;;;5104631;28;20541;-69
2022/06/07 12:45:26;;;;;;;1.38;1.27;;;25.50;19.30;;;;;;5102235;28;20210;-68
2022/06/07 12:47:59;;;;;;;1.20;1.10;;;25.60;18.50;;;;;;5099936;28;20647;-69
2022/06/07 12:50:31;;;;;;;1.00;1.00;;;25.60;18.20;;;;;;5101375;28;20205;-68
2022/06/07 12:52:59;;;;;;;1.52;1.42;;;25.60;17.90;;;;;;5102442;28;20280;-69
2022/06/07 12:55:29;;;;;;;2.20;1.27;;;24.80;16.90;;;;;;5103308;28;20328;-68
2022/06/07 12:58:00;;;;;;;2.05;1.13;;;24.50;19.70;;;;;;5103770;28;20236;-70
2022/06/07 13:00:31;;;;;;;1.23;1.05;;;25.20;18.90;;;;;;5095706;28;20621;-69
2022/06/07 13:03:03;;;;;;;4.45;1.15;;;25.10;19.20;;;;;;5105018;28;20209;-68
2022/06/07 13:05:34;;;;;;;5.97;1.92;;;25.10;17.20;;;;;;5105459;28;20197;-69
2022/06/07 13:08:04;;;;;;;3.13;1.33;;;24.50;19.10;;;;;;5102184;28;20210;-68
2022/06/07 13:10:35;;;;;;;1.60;1.30;;;24.30;20.20;;;;;;5101489;28;20247;-68
2022/06/07 13:13:06;;;;;;;2.30;1.25;;;24.00;19.80;;;;;;5098558;28;20700;-68
2022/06/07 13:15:36;;;;;;;3.25;1.20;;;24.10;20.60;;;;;;5103425;28;20221;-68
2022/06/07 13:18:06;;;;;;;3.83;1.27;;;25.20;17.90;;;;;;5098804;28;20197;-68
2022/06/07 13:20:37;;;;;;;2.22;1.40;;;25.30;16.40;;;;;;5102667;28;20199;-68
2022/06/07 13:23:16;;;;;;;1.65;1.23;;;24.30;17.60;;;;;;5098454;28;20254;-68
2022/06/07 13:25:46;;;;;;;1.52;1.40;;;24.10;18.80;;;;;;5101078;28;20200;-68
2022/06/07 13:28:18;;;;;;;4.00;1.25;;;24.20;19.00;;;;;;5103312;28;20228;-68
2022/06/07 13:30:46;;;;;;;1.67;1.50;;;24.20;20.10;;;;;;5100628;28;20208;-69
2022/06/07 13:33:33;;;;;;;2.80;1.73;;;24.50;20.20;;;;;;5105554;28;20201;-68